createdAt,value
2018-10-12T00:02:25.380Z,16.77
2018-10-12T00:04:59.775Z,14.87
2018-10-12T00:07:34.471Z,15.90
2018-10-12T00:10:09.280Z,17.23
2018-10-12T00:12:43.846Z,14.70
2018-10-12T00:15:18.361Z,13.80
2018-10-12T00:17:52.913Z,14.40
2018-10-12T00:20:27.562Z,14.47
2018-10-12T00:23:01.947Z,14.90
2018-10-12T00:25:36.339Z,14.80
2018-10-12T00:28:10.759Z,14.00
2018-10-12T00:30:45.198Z,14.33
2018-10-12T00:33:19.630Z,14.70
2018-10-12T00:35:53.972Z,15.77
2018-10-12T00:38:28.269Z,15.40
2018-10-12T00:41:02.672Z,14.33
2018-10-12T00:43:36.847Z,14.13
2018-10-12T00:46:11.292Z,13.70
2018-10-12T00:48:45.802Z,13.70
2018-10-12T00:51:20.274Z,14.53
2018-10-12T00:53:54.774Z,15.40
2018-10-12T00:56:29.165Z,13.60
2018-10-12T00:59:03.589Z,13.70
2018-10-12T01:01:37.945Z,14.57
2018-10-12T01:04:12.368Z,14.03
2018-10-12T01:06:46.908Z,13.43
2018-10-12T01:09:21.421Z,13.77
2018-10-12T01:12:07.447Z,14.63
2018-10-12T01:14:41.990Z,12.00
2018-10-12T01:17:16.540Z,16.33
2018-10-12T01:19:51.917Z,14.30
2018-10-12T01:22:27.328Z,12.77
2018-10-12T01:25:02.998Z,14.33
2018-10-12T01:27:37.443Z,14.97
2018-10-12T01:30:11.927Z,14.00
2018-10-12T01:32:51.743Z,14.10
2018-10-12T01:35:25.933Z,13.97
2018-10-12T01:38:00.568Z,13.33
2018-10-12T01:40:34.982Z,13.47
2018-10-12T01:43:09.287Z,14.77
2018-10-12T01:45:43.812Z,12.33
2018-10-12T01:48:18.061Z,14.40
2018-10-12T01:50:52.447Z,12.10
2018-10-12T01:53:26.847Z,14.60
2018-10-12T01:56:04.421Z,15.27
2018-10-12T01:58:38.677Z,17.63
2018-10-12T02:01:14.103Z,12.40
2018-10-12T02:03:49.325Z,13.03
2018-10-12T02:06:23.984Z,13.47
2018-10-12T02:08:59.672Z,14.23
2018-10-12T02:11:36.064Z,13.13
2018-10-12T02:14:10.406Z,12.13
2018-10-12T02:16:51.732Z,13.27
2018-10-12T02:19:26.597Z,13.47
2018-10-12T02:22:01.237Z,11.70
2018-10-12T02:24:35.777Z,12.50
2018-10-12T02:27:10.167Z,12.40
2018-10-12T02:29:44.972Z,13.70
2018-10-12T02:32:19.309Z,12.87
2018-10-12T02:34:53.774Z,12.20
2018-10-12T02:37:28.269Z,12.33
2018-10-12T02:40:02.766Z,12.87
2018-10-12T02:42:37.362Z,13.50
2018-10-12T02:45:11.868Z,11.57
2018-10-12T02:47:46.465Z,13.60
2018-10-12T02:50:21.101Z,11.70
2018-10-12T02:52:55.763Z,11.23
2018-10-12T02:55:30.422Z,13.57
2018-10-12T02:58:04.928Z,11.80
2018-10-12T03:00:40.314Z,11.33
2018-10-12T03:03:14.696Z,12.10
2018-10-12T03:05:49.233Z,11.87
2018-10-12T03:08:23.482Z,12.73
2018-10-12T03:10:57.869Z,12.33
2018-10-12T03:13:32.441Z,12.93
2018-10-12T03:16:07.796Z,12.50
2018-10-12T03:18:42.487Z,12.30
2018-10-12T03:21:16.853Z,11.53
2018-10-12T03:23:51.156Z,12.60
2018-10-12T03:26:25.418Z,12.77
2018-10-12T03:29:00.841Z,10.33
2018-10-12T03:31:35.289Z,12.00
2018-10-12T03:34:10.614Z,12.67
2018-10-12T03:36:44.907Z,12.80
2018-10-12T03:39:20.720Z,12.20
2018-10-12T03:41:55.129Z,13.43
2018-10-12T03:44:29.479Z,10.93
2018-10-12T03:47:03.785Z,13.67
2018-10-12T03:49:38.162Z,13.33
2018-10-12T03:52:12.547Z,11.57
2018-10-12T03:54:48.245Z,12.80
2018-10-12T03:57:22.719Z,11.17
2018-10-12T03:59:57.103Z,11.97
2018-10-12T04:02:31.580Z,12.03
2018-10-12T04:05:06.705Z,13.47
2018-10-12T04:07:41.286Z,12.60
2018-10-12T04:10:15.592Z,11.67
2018-10-12T04:12:50.170Z,12.60
2018-10-12T04:15:24.530Z,12.80
2018-10-12T04:17:59.242Z,14.33
2018-10-12T04:20:33.796Z,12.73
2018-10-12T04:23:09.638Z,14.00
2018-10-12T04:25:45.141Z,12.70
2018-10-12T04:28:19.515Z,11.33
2018-10-12T04:30:53.950Z,12.03
2018-10-12T04:33:28.733Z,11.40
2018-10-12T04:36:03.404Z,13.90
2018-10-12T04:38:52.642Z,13.40
2018-10-12T04:41:28.302Z,14.00
2018-10-12T04:44:03.547Z,13.10
2018-10-12T04:46:42.852Z,13.23
2018-10-12T04:49:17.881Z,13.03
2018-10-12T04:51:54.969Z,12.43
2018-10-12T04:54:29.393Z,11.67
2018-10-12T04:57:03.869Z,12.73
2018-10-12T04:59:38.901Z,13.77
2018-10-12T05:02:16.079Z,13.63
2018-10-12T05:04:51.405Z,14.93
2018-10-12T05:07:25.665Z,12.40
2018-10-12T05:10:00.143Z,14.10
2018-10-12T05:12:34.483Z,13.30
2018-10-12T05:15:09.489Z,13.30
2018-10-12T05:17:44.133Z,11.97
2018-10-12T05:20:20.357Z,13.63
2018-10-12T05:22:56.834Z,12.87
2018-10-12T05:25:33.229Z,15.30
2018-10-12T05:28:08.312Z,13.20
2018-10-12T05:30:43.361Z,13.37
2018-10-12T05:33:17.914Z,12.60
2018-10-12T05:35:52.349Z,13.03
2018-10-12T05:38:28.139Z,16.00
2018-10-12T05:41:02.611Z,12.73
2018-10-12T05:43:38.064Z,13.97
2018-10-12T05:46:12.532Z,12.77
2018-10-12T05:48:58.624Z,12.47
2018-10-12T05:51:33.083Z,13.03
2018-10-12T05:54:07.522Z,13.70
2018-10-12T05:56:42.756Z,13.90
2018-10-12T05:59:17.803Z,13.13
2018-10-12T06:01:52.661Z,15.03
2018-10-12T06:04:27.547Z,15.73
2018-10-12T06:07:02.398Z,15.33
2018-10-12T06:09:37.651Z,12.90
2018-10-12T06:12:13.133Z,16.63
2018-10-12T06:14:47.881Z,12.40
2018-10-12T06:17:22.781Z,13.53
2018-10-12T06:19:57.055Z,14.20
2018-10-12T06:22:32.210Z,13.87
2018-10-12T06:25:08.984Z,18.00
2018-10-12T06:27:44.643Z,13.13
2018-10-12T06:30:19.537Z,13.87
2018-10-12T06:32:54.387Z,13.17
2018-10-12T06:35:29.209Z,20.80
2018-10-12T06:38:03.762Z,13.23
2018-10-12T06:40:39.277Z,13.23
2018-10-12T06:43:13.919Z,14.37
2018-10-12T06:45:48.636Z,14.80
2018-10-12T06:48:23.605Z,14.93
2018-10-12T06:50:58.081Z,12.70
2018-10-12T06:53:33.903Z,13.60
2018-10-12T06:56:08.652Z,12.70
2018-10-12T06:58:43.358Z,13.43
2018-10-12T07:01:17.939Z,11.90
2018-10-12T07:03:52.301Z,17.20
2018-10-12T07:06:26.702Z,13.63
2018-10-12T07:09:01.119Z,12.70
2018-10-12T07:11:36.379Z,12.90
2018-10-12T07:14:11.159Z,16.47
2018-10-12T07:16:45.597Z,13.80
2018-10-12T07:19:19.965Z,17.33
2018-10-12T07:21:54.411Z,13.17
2018-10-12T07:24:29.382Z,13.90
2018-10-12T07:27:11.251Z,14.30
2018-10-12T07:29:45.862Z,14.97
2018-10-12T07:32:23.667Z,14.47
2018-10-12T07:34:59.631Z,13.10
2018-10-12T07:37:37.779Z,14.00
2018-10-12T07:40:15.362Z,14.37
2018-10-12T07:42:54.415Z,13.73
2018-10-12T07:45:35.589Z,13.30
2018-10-12T07:48:11.981Z,15.07
2018-10-12T07:50:46.623Z,13.73
2018-10-12T07:53:22.346Z,14.20
2018-10-12T07:55:59.097Z,13.00
2018-10-12T07:58:36.598Z,12.90
2018-10-12T08:01:12.544Z,12.00
2018-10-12T08:03:47.127Z,12.27
2018-10-12T08:06:23.719Z,14.10
2018-10-12T08:08:58.958Z,12.17
2018-10-12T08:11:34.400Z,15.03
2018-10-12T08:14:10.020Z,13.53
2018-10-12T08:16:45.954Z,13.03
2018-10-12T08:19:22.566Z,13.13
2018-10-12T08:22:02.212Z,12.00
2018-10-12T08:24:37.062Z,12.30
2018-10-12T08:27:12.395Z,12.40
2018-10-12T08:29:48.251Z,12.10
2018-10-12T08:32:23.622Z,11.87
2018-10-12T08:35:01.310Z,11.70
2018-10-12T08:37:39.491Z,13.50
2018-10-12T08:40:15.941Z,11.70
2018-10-12T08:42:51.956Z,12.60
2018-10-12T08:45:27.748Z,11.50
2018-10-12T08:48:02.827Z,11.10
2018-10-12T08:50:39.197Z,11.53
2018-10-12T08:53:17.929Z,11.23
2018-10-12T08:55:53.164Z,11.67
2018-10-12T08:58:29.090Z,13.60
2018-10-12T09:01:05.919Z,11.70
2018-10-12T09:03:40.799Z,12.03
2018-10-12T09:06:16.672Z,11.73
2018-10-12T09:08:53.373Z,12.00
2018-10-12T09:11:28.216Z,11.03
2018-10-12T09:14:04.143Z,10.23
2018-10-12T09:16:41.110Z,11.10
2018-10-12T09:19:16.545Z,10.37
2018-10-12T09:21:51.861Z,10.43
2018-10-12T09:24:31.684Z,12.53
2018-10-12T09:29:47.973Z,10.00
2018-10-12T09:32:28.480Z,10.00
2018-10-12T09:35:04.332Z,12.40
2018-10-12T09:37:43.189Z,9.37
2018-10-12T09:40:17.977Z,10.37
2018-10-12T09:42:53.850Z,8.93
2018-10-12T09:45:30.061Z,9.43
2018-10-12T09:48:04.837Z,8.63
2018-10-12T09:50:40.303Z,8.10
2018-10-12T09:53:15.986Z,8.50
2018-10-12T09:55:51.583Z,8.50
2018-10-12T09:58:26.523Z,12.60
2018-10-12T10:01:06.315Z,7.77
2018-10-12T10:03:51.398Z,7.47
2018-10-12T10:06:31.790Z,8.20
2018-10-12T10:09:10.446Z,7.40
2018-10-12T10:11:46.267Z,6.43
2018-10-12T10:14:25.829Z,7.53
2018-10-12T10:17:01.873Z,6.50
2018-10-12T10:19:42.438Z,5.70
2018-10-12T10:22:22.056Z,6.50
2018-10-12T10:25:02.624Z,7.37
2018-10-12T10:27:37.753Z,7.73
2018-10-12T10:30:15.260Z,7.13
2018-10-12T10:32:51.132Z,8.77
2018-10-12T10:35:27.401Z,7.23
2018-10-12T10:38:05.796Z,7.60
2018-10-12T10:40:41.039Z,9.43
2018-10-12T10:43:17.639Z,7.10
2018-10-12T10:45:56.474Z,9.43
2018-10-12T10:48:36.416Z,6.37
2018-10-12T10:51:16.522Z,5.50
2018-10-12T10:53:55.504Z,5.73
2018-10-12T10:56:31.112Z,7.53
2018-10-12T10:59:08.299Z,4.13
2018-10-12T11:01:43.796Z,5.10
2018-10-12T11:04:22.266Z,5.63
2018-10-12T11:06:58.427Z,6.83
2018-10-12T11:09:34.744Z,5.13
2018-10-12T11:12:10.580Z,4.10
2018-10-12T11:14:46.043Z,4.67
2018-10-12T11:23:13.871Z,3.93
2018-10-12T11:25:55.883Z,6.10
2018-10-12T11:31:28.937Z,4.70
2018-10-12T11:34:05.919Z,4.70
2018-10-12T11:36:42.456Z,6.27
2018-10-12T11:39:17.410Z,4.23
2018-10-12T11:41:55.109Z,5.37
2018-10-12T11:44:31.735Z,6.17
2018-10-12T11:47:08.285Z,4.87
2018-10-12T11:49:43.501Z,3.40
2018-10-12T11:52:20.210Z,4.63
2018-10-12T11:54:57.568Z,4.00
2018-10-12T11:57:33.276Z,4.67
2018-10-12T12:00:15.127Z,3.90
2018-10-12T12:02:55.563Z,5.20
2018-10-12T12:05:30.585Z,3.97
2018-10-12T12:08:06.496Z,3.80
2018-10-12T12:10:42.162Z,3.60
2018-10-12T12:13:16.786Z,6.17
2018-10-12T12:15:52.067Z,4.93
2018-10-12T12:18:26.683Z,3.70
2018-10-12T12:21:05.240Z,4.10
2018-10-12T12:23:47.012Z,4.70
2018-10-12T12:29:08.895Z,3.23
2018-10-12T12:34:23.486Z,3.10
2018-10-12T12:36:57.904Z,6.17
2018-10-12T12:39:32.291Z,4.50
2018-10-12T12:42:08.783Z,3.70
2018-10-12T12:44:43.929Z,3.53
2018-10-12T12:47:19.437Z,3.30
2018-10-12T12:49:54.067Z,3.00
2018-10-12T12:52:29.778Z,3.67
2018-10-12T12:55:04.729Z,3.43
2018-10-12T12:57:39.869Z,4.50
2018-10-12T13:00:15.354Z,3.40
2018-10-12T13:02:49.795Z,4.10
2018-10-12T13:08:11.582Z,3.40
2018-10-12T13:10:45.919Z,4.30
2018-10-12T13:13:21.009Z,4.70
2018-10-12T13:15:57.643Z,7.80
2018-10-12T13:18:32.439Z,5.20
2018-10-12T13:21:06.941Z,5.30
2018-10-12T13:23:41.414Z,5.17
2018-10-12T13:26:16.692Z,4.57
2018-10-12T13:28:52.755Z,7.17
2018-10-12T13:31:27.591Z,5.07
2018-10-12T13:34:06.666Z,4.23
2018-10-12T13:36:44.118Z,5.00
2018-10-12T13:39:22.396Z,5.43
2018-10-12T13:42:05.107Z,6.40
2018-10-12T13:44:43.337Z,5.87
2018-10-12T13:47:31.502Z,5.53
2018-10-12T13:50:08.923Z,6.30
2018-10-12T13:52:56.890Z,6.13
2018-10-12T13:55:36.747Z,4.63
2018-10-12T14:01:00.197Z,7.63
2018-10-12T14:03:48.168Z,4.83
2018-10-12T14:06:30.981Z,6.00
2018-10-12T14:12:07.368Z,5.20
2018-10-12T14:14:53.505Z,3.60
2018-10-12T14:17:39.425Z,5.60
2018-10-12T14:20:28.175Z,4.40
2018-10-12T14:23:15.527Z,3.33
2018-10-12T14:31:40.264Z,4.43
2018-10-12T14:34:19.822Z,4.10
2018-10-12T14:36:57.416Z,5.70
2018-10-12T14:39:42.814Z,4.10
2018-10-12T14:42:27.544Z,3.63
2018-10-12T14:45:10.573Z,8.10
2018-10-12T14:47:48.183Z,3.87
2018-10-12T14:50:24.589Z,4.20
2018-10-12T14:53:03.052Z,4.27
2018-10-12T14:55:42.519Z,6.77
2018-10-12T14:58:18.698Z,4.63
2018-10-12T15:01:01.433Z,6.13
2018-10-12T15:03:45.694Z,4.70
2018-10-12T15:06:25.765Z,4.90
2018-10-12T15:09:11.273Z,5.80
2018-10-12T15:11:55.086Z,5.67
2018-10-12T15:14:42.572Z,6.20
2018-10-12T15:17:22.983Z,5.87
2018-10-12T15:20:00.795Z,6.80
2018-10-12T15:22:51.200Z,6.47
2018-10-12T15:25:28.815Z,5.40
2018-10-12T15:28:03.297Z,6.90
2018-10-12T15:33:31.082Z,5.50
2018-10-12T15:36:09.077Z,6.10
2018-10-12T15:38:50.157Z,6.00
2018-10-12T15:41:26.686Z,5.97
2018-10-12T15:44:14.677Z,5.03
2018-10-12T15:46:49.307Z,5.80
2018-10-12T15:49:24.522Z,5.80
2018-10-12T15:51:59.173Z,7.43
2018-10-12T15:54:34.955Z,6.93
2018-10-12T15:57:16.083Z,6.10
2018-10-12T15:59:50.782Z,6.60
2018-10-12T16:02:26.104Z,6.07
2018-10-12T16:05:01.152Z,5.30
2018-10-12T16:07:37.520Z,7.37
2018-10-12T16:10:12.476Z,6.57
2018-10-12T16:12:49.705Z,7.23
2018-10-12T16:15:25.785Z,8.87
2018-10-12T16:18:01.431Z,6.67
2018-10-12T16:20:39.780Z,7.00
2018-10-12T16:23:15.492Z,9.93
2018-10-12T16:26:25.438Z,7.07
2018-10-12T16:29:00.749Z,7.80
2018-10-12T16:31:36.366Z,7.50
2018-10-12T16:34:16.111Z,9.40
2018-10-12T16:36:53.834Z,7.27
2018-10-12T16:42:20.549Z,11.07
2018-10-12T16:44:56.077Z,9.90
2018-10-12T16:47:38.270Z,11.13
2018-10-12T16:50:21.039Z,7.83
2018-10-12T16:55:53.261Z,7.60
2018-10-12T16:58:29.928Z,7.80
2018-10-12T17:01:06.667Z,6.70
2018-10-12T17:03:54.528Z,7.67
2018-10-12T17:06:31.109Z,5.83
2018-10-12T17:09:09.075Z,11.20
2018-10-12T17:11:44.009Z,8.37
2018-10-12T17:14:37.845Z,7.03
2018-10-12T17:17:24.598Z,9.17
2018-10-12T17:19:59.299Z,12.37
2018-10-12T17:22:34.760Z,13.90
2018-10-12T17:25:09.173Z,10.27
2018-10-12T17:27:51.084Z,15.23
2018-10-12T17:30:26.735Z,10.47
2018-10-12T17:33:05.878Z,9.30
2018-10-12T17:35:40.514Z,10.13
2018-10-12T17:38:15.178Z,7.70
2018-10-12T17:40:49.845Z,9.00
2018-10-12T17:43:24.196Z,12.23
2018-10-12T17:46:00.343Z,13.07
2018-10-12T17:48:45.953Z,8.93
2018-10-12T17:51:21.630Z,7.73
2018-10-12T17:54:02.321Z,16.03
2018-10-12T17:56:38.561Z,10.83
2018-10-12T17:59:17.976Z,9.13
2018-10-12T18:01:53.163Z,9.10
2018-10-12T18:04:34.386Z,8.17
2018-10-12T18:07:12.440Z,8.50
2018-10-12T18:09:52.322Z,8.40
2018-10-12T18:12:30.331Z,10.43
2018-10-12T18:15:08.634Z,8.10
2018-10-12T18:17:44.489Z,8.50
2018-10-12T18:20:22.597Z,13.27
2018-10-12T18:23:04.166Z,12.17
2018-10-12T18:25:39.359Z,9.10
2018-10-12T18:31:05.434Z,8.40
2018-10-12T18:33:41.057Z,11.30
2018-10-12T18:39:20.093Z,8.23
2018-10-12T18:41:56.757Z,7.10
2018-10-12T18:44:39.031Z,8.33
2018-10-12T18:47:13.993Z,10.10
2018-10-12T18:49:48.566Z,8.10
2018-10-12T18:52:35.739Z,8.00
2018-10-12T18:55:12.723Z,8.00
2018-10-12T18:57:53.062Z,7.90
2018-10-12T19:00:27.677Z,10.00
2018-10-12T19:03:10.366Z,8.73
2018-10-12T19:05:52.764Z,8.13
2018-10-12T19:08:39.966Z,8.00
2018-10-12T19:11:18.870Z,8.20
2018-10-12T19:13:53.465Z,7.50
2018-10-12T19:28:12.550Z,8.50
2018-10-12T19:30:57.404Z,8.53
2018-10-12T19:36:36.295Z,7.80
2018-10-12T19:39:18.214Z,7.47
2018-10-12T19:42:07.856Z,10.30
2018-10-12T19:44:55.184Z,8.53
2018-10-12T19:47:35.152Z,8.03
2018-10-12T19:56:04.018Z,8.87
2018-10-12T19:58:40.845Z,11.20
2018-10-12T20:01:16.755Z,8.47
2018-10-12T20:03:54.644Z,8.37
2018-10-12T20:06:30.327Z,9.53
2018-10-12T20:09:07.863Z,9.90
2018-10-12T20:11:46.149Z,9.97
2018-10-12T20:14:23.797Z,9.50
2018-10-12T20:17:01.159Z,7.93
2018-10-12T20:19:39.539Z,8.90
2018-10-12T20:22:16.227Z,9.37
2018-10-12T20:24:52.560Z,7.00
2018-10-12T20:27:27.241Z,7.17
2018-10-12T20:30:02.078Z,6.63
2018-10-12T20:32:47.872Z,6.70
2018-10-12T20:38:10.612Z,7.23
2018-10-12T20:40:47.605Z,7.13
2018-10-12T20:43:23.004Z,6.83
2018-10-12T20:46:00.447Z,6.80
2018-10-12T20:48:35.506Z,7.33
2018-10-12T20:51:11.083Z,7.77
2018-10-12T20:53:50.784Z,7.67
2018-10-12T20:56:25.954Z,6.83
2018-10-12T20:59:01.815Z,6.93
2018-10-12T21:01:38.514Z,5.90
2018-10-12T21:04:19.466Z,8.10
2018-10-12T21:06:54.650Z,6.97
2018-10-12T21:09:30.211Z,7.00
2018-10-12T21:12:06.209Z,9.83
2018-10-12T21:14:42.330Z,7.50
2018-10-12T21:17:18.695Z,6.70
2018-10-12T21:19:56.322Z,7.07
2018-10-12T21:22:34.283Z,7.47
2018-10-12T21:25:09.634Z,6.20
2018-10-12T21:27:44.182Z,9.60
2018-10-12T21:30:20.040Z,6.20
2018-10-12T21:32:54.985Z,8.00
2018-10-12T21:35:30.294Z,6.83
2018-10-12T21:38:20.134Z,7.93
2018-10-12T21:40:55.623Z,6.50
2018-10-12T21:43:31.150Z,8.20
2018-10-12T21:46:11.690Z,6.93
2018-10-12T21:48:50.517Z,7.67
2018-10-12T21:51:25.824Z,7.40
2018-10-12T21:56:49.379Z,9.97
2018-10-12T21:59:24.454Z,9.03
2018-10-12T22:02:01.338Z,6.23
2018-10-12T22:04:37.403Z,9.87
2018-10-12T22:07:13.411Z,7.00
2018-10-12T22:09:50.533Z,7.27
2018-10-12T22:12:27.160Z,7.10
2018-10-12T22:15:02.880Z,5.20
2018-10-12T22:17:38.965Z,8.13
2018-10-12T22:20:13.902Z,6.10
2018-10-12T22:22:48.633Z,6.10
2018-10-12T22:25:23.461Z,7.10
2018-10-12T22:28:00.190Z,6.67
2018-10-12T22:30:35.122Z,5.17
2018-10-12T22:33:10.671Z,7.97
2018-10-12T22:35:45.432Z,6.00
2018-10-12T22:38:20.673Z,6.23
2018-10-12T22:41:00.302Z,6.87
2018-10-12T22:43:39.107Z,7.00
2018-10-12T22:46:20.316Z,5.77
2018-10-12T22:48:56.042Z,6.10
2018-10-12T22:54:23.114Z,8.73
2018-10-12T22:56:57.956Z,6.43
2018-10-12T22:59:37.392Z,6.30
2018-10-12T23:02:13.559Z,6.70
2018-10-12T23:04:49.605Z,8.33
2018-10-12T23:07:25.417Z,9.37
2018-10-12T23:10:01.746Z,8.43
2018-10-12T23:12:37.347Z,6.77
2018-10-12T23:15:13.541Z,7.23
2018-10-12T23:17:51.001Z,6.90
2018-10-12T23:20:26.383Z,6.67
2018-10-12T23:23:01.711Z,7.93
2018-10-12T23:25:38.712Z,7.30
2018-10-12T23:28:18.670Z,7.73
2018-10-12T23:30:55.319Z,6.43
2018-10-12T23:33:44.441Z,6.40
2018-10-12T23:36:22.794Z,6.10
2018-10-12T23:38:59.843Z,6.83
2018-10-12T23:41:36.441Z,7.03
2018-10-12T23:44:13.907Z,7.63
2018-10-12T23:46:50.951Z,8.10
2018-10-12T23:49:27.896Z,7.80
2018-10-12T23:52:04.281Z,6.70
2018-10-12T23:54:52.174Z,7.20
2018-10-12T23:57:27.778Z,6.70
